Iemanja — WDE8030 — position and weather

sailwx.info

Track history (hours):
 
Tides and Currents Weather Stations Pressure Air Temp Water Temp Dewpoint Dewpoint Depression Visibility Wind Speed Wind Dir Waves Ship Positions

Iemanja

Owner: Gottlieb, James B, Port Washington, NY. More information available from US FCC via Universal Licensing System and Coast Guard Vessel Documentation Center.

Last reported at 2017-Apr-20 21:05 UTC. Time now 2017-Apr-26 00:04 UTC.
Position N 18°18' W 064°52'.

Length 28 m; draft 0.6 m.

Type: Sailing vessel. MMSI: 366215000.

Date/timePositionNaut miles runAvg speedWind from/ knotsBaromVisibWave heightAir tempDewpointWater temp
2017-Apr-20 21:05N 18°18' W 064°52'1 8.7
2017-Apr-20 20:59N 18°18' W 064°51'4 8.6
2017-Apr-20 20:29N 18°21' W 064°48'4 9.2
2017-Apr-20 20:00N 18°25' W 064°46'1 0.1
2017-Apr-20 12:33N 18°26' W 064°45'1 8.0
2017-Apr-20 12:28N 18°25' W 064°45'85 2.8
2017-Apr-19 05:46N 18°05' W 063°18'3 9.7
2017-Apr-19 05:27N 18°04' W 063°15'4 9.4
2017-Apr-19 04:59N 18°02' W 063°10'5 9.1
2017-Apr-19 04:28N 18°00' W 063°06'1 0.1
2017-Apr-18 16:50N 18°01' W 063°05'1 3.1
2017-Apr-18 16:27N 18°02' W 063°06'0 0.0
2017-Apr-18 15:57N 18°02' W 063°06'0 0.0
2017-Apr-18 15:26N 18°02' W 063°06'0 0.0
2017-Apr-18 15:00N 18°02' W 063°06'0 0.0
2017-Apr-18 14:30N 18°02' W 063°06'0 0.0
2017-Apr-18 13:30N 18°02' W 063°06'0 0.0
2017-Apr-18 13:00N 18°02' W 063°06'0 0.0
2017-Apr-18 12:30N 18°02' W 063°06'0 0.0
2017-Apr-18 12:00N 18°02' W 063°06'0 0.0
2017-Apr-18 11:30N 18°02' W 063°06'0 0.0
2017-Apr-18 10:48N 18°02' W 063°06'0 0.0
2017-Apr-18 10:30N 18°02' W 063°06'0 0.0
2017-Apr-18 09:51N 18°02' W 063°06'0 0.0
2017-Apr-18 09:30N 18°02' W 063°06'0 0.0
2017-Apr-18 09:00N 18°02' W 063°06'0 0.0
2017-Apr-18 08:21N 18°02' W 063°06'0 0.0
2017-Apr-18 07:54N 18°02' W 063°06'0 0.0
2017-Apr-18 07:24N 18°02' W 063°06'0 0.0
2017-Apr-18 06:54N 18°02' W 063°06'0 0.0
2017-Apr-18 06:24N 18°02' W 063°06'0 0.0
2017-Apr-18 05:54N 18°02' W 063°06'0 0.0
2017-Apr-18 05:24N 18°02' W 063°06'0 0.0
2017-Apr-18 04:54N 18°02' W 063°06'0 0.0
2017-Apr-18 04:27N 18°02' W 063°06'0 0.0
2017-Apr-18 03:57N 18°02' W 063°06'0 0.0
2017-Apr-18 03:27N 18°02' W 063°06'0 0.0
2017-Apr-18 03:00N 18°02' W 063°06'0 0.0
2017-Apr-18 02:30N 18°02' W 063°06'0 0.0
2017-Apr-18 02:00N 18°02' W 063°06'0 0.0
2017-Apr-18 01:30N 18°02' W 063°06'0 0.0
2017-Apr-18 01:00N 18°02' W 063°06'0 0.0
2017-Apr-18 00:30N 18°02' W 063°06'0 0.0
2017-Apr-18 00:00N 18°02' W 063°06'0 0.0
2017-Apr-17 23:30N 18°02' W 063°06'0 0.0
2017-Apr-17 23:00N 18°02' W 063°06'0 0.0
2017-Apr-17 22:30N 18°02' W 063°06'0 0.0
2017-Apr-17 21:51N 18°02' W 063°06'0 0.0
2017-Apr-17 21:30N 18°02' W 063°06'0 0.0
2017-Apr-17 21:00N 18°02' W 063°06'0 0.0
2017-Apr-17 20:21N 18°02' W 063°06'0 0.0
2017-Apr-17 19:51N 18°02' W 063°06'0 0.0
2017-Apr-17 19:24N 18°02' W 063°06'0 0.0
2017-Apr-17 18:54N 18°02' W 063°06'0 0.0
2017-Apr-17 18:24N 18°02' W 063°06'0 0.0
2017-Apr-17 17:36N 18°02' W 063°06'0 0.0
2017-Apr-17 17:24N 18°02' W 063°06'0 0.0
2017-Apr-17 16:57N 18°02' W 063°06'0 0.0
2017-Apr-17 16:27N 18°02' W 063°06'0 0.0
2017-Apr-17 15:57N 18°02' W 063°06'0 0.0
2017-Apr-17 15:27N 18°02' W 063°06'0 0.0
2017-Apr-17 14:57N 18°02' W 063°06'0 0.0
2017-Apr-17 14:00N 18°02' W 063°06'0 0.4
2017-Apr-17 13:27N 18°02' W 063°06'0 0.0
2017-Apr-17 12:54N 18°02' W 063°06'0 0.0
2017-Apr-17 12:27N 18°02' W 063°06'0 0.0
2017-Apr-17 11:57N 18°02' W 063°06'0 0.0
2017-Apr-17 11:30N 18°02' W 063°06'0 0.0
2017-Apr-17 10:57N 18°02' W 063°06'0 0.0
2017-Apr-17 10:12N 18°02' W 063°06'0 0.0
2017-Apr-17 10:00N 18°02' W 063°06'0 0.0
2017-Apr-17 09:27N 18°02' W 063°06'0 0.0
2017-Apr-17 09:00N 18°02' W 063°06'0 0.0
2017-Apr-17 08:30N 18°02' W 063°06'0 0.0
2017-Apr-17 08:00N 18°02' W 063°06'0 0.0
2017-Apr-17 07:30N 18°02' W 063°06'0 0.0
2017-Apr-17 07:00N 18°02' W 063°06'0 0.0
2017-Apr-17 06:30N 18°02' W 063°06'0 0.0
2017-Apr-17 06:00N 18°02' W 063°06'0 0.0
2017-Apr-17 05:21N 18°02' W 063°06'0 0.0
2017-Apr-17 04:51N 18°02' W 063°06'0 0.0
2017-Apr-17 04:24N 18°02' W 063°06'0 0.0
2017-Apr-17 03:54N 18°02' W 063°06'0 0.0
2017-Apr-17 03:24N 18°02' W 063°06'0 0.0
2017-Apr-17 02:54N 18°02' W 063°06'0 0.0
2017-Apr-17 02:21N 18°02' W 063°06'0 0.0
2017-Apr-17 01:57N 18°02' W 063°06'0 0.0
2017-Apr-17 01:27N 18°02' W 063°06'0 0.0
2017-Apr-17 00:57N 18°02' W 063°06'0 0.0
2017-Apr-17 00:27N 18°02' W 063°06'0 0.0
2017-Apr-16 23:57N 18°02' W 063°06'0 0.0
2017-Apr-16 23:30N 18°02' W 063°06'0 0.0
2017-Apr-16 23:00N 18°02' W 063°06'0 0.0
2017-Apr-16 22:30N 18°02' W 063°06'0 0.0
2017-Apr-16 22:00N 18°02' W 063°06'0 0.0
2017-Apr-16 21:30N 18°02' W 063°06'0 0.0
2017-Apr-16 21:00N 18°02' W 063°06'0 0.0
2017-Apr-16 20:30N 18°02' W 063°06'0 0.0
2017-Apr-16 20:00N 18°02' W 063°06'1 2.2
2017-Apr-16 19:25N 18°01' W 063°05'0 0.0
2017-Apr-14 20:18N 18°01' W 063°05'1 4.1
2017-Apr-14 19:56N 18°02' W 063°06'0 0.5
2017-Apr-14 19:30N 18°02' W 063°05'0 0.0
2017-Apr-14 14:09N 18°02' W 063°05'0 0.0
2017-Apr-14 12:21N 18°02' W 063°05'0 0.0
2017-Apr-14 10:09N 18°02' W 063°05'0 0.0
2017-Apr-14 09:57N 18°02' W 063°05'0 0.0
2017-Apr-14 09:27N 18°02' W 063°05'0 0.0
2017-Apr-14 09:00N 18°02' W 063°05'0 0.0
2017-Apr-14 08:30N 18°02' W 063°05'0 0.0
2017-Apr-14 08:00N 18°02' W 063°05'0 0.0
2017-Apr-14 07:30N 18°02' W 063°05'0 0.0
2017-Apr-14 06:57N 18°02' W 063°05'0 0.0
2017-Apr-14 06:15N 18°02' W 063°05'0 0.0
2017-Apr-14 06:00N 18°02' W 063°05'0 0.0
2017-Apr-14 05:30N 18°02' W 063°05'0 0.0
2017-Apr-14 05:00N 18°02' W 063°05'0 0.0
2017-Apr-14 04:15N 18°02' W 063°05'0 0.0
2017-Apr-14 04:00N 18°02' W 063°05'0 0.0
2017-Apr-12 21:01N 18°02' W 063°05'0 0.0
2017-Apr-12 20:31N 18°02' W 063°05'0 0.0
2017-Apr-12 19:31N 18°02' W 063°05'0 0.0
2017-Apr-12 19:04N 18°02' W 063°05'0 0.1
2017-Apr-12 18:58N 18°02' W 063°05'0 0.0
2017-Apr-12 17:31N 18°02' W 063°05'0 0.0
2017-Apr-12 13:37N 18°02' W 063°05'0 0.0
2017-Apr-12 11:55N 18°02' W 063°05'0 0.0
2017-Apr-12 11:25N 18°02' W 063°05'0 0.0
2017-Apr-12 10:55N 18°02' W 063°05'0 0.0
2017-Apr-12 10:28N 18°02' W 063°05'0 0.0
2017-Apr-12 09:55N 18°02' W 063°05'0 0.0
2017-Apr-12 09:29N 18°02' W 063°05'0 0.0
2017-Apr-12 08:58N 18°02' W 063°05'0 0.0
2017-Apr-12 08:28N 18°02' W 063°05'0 0.0
2017-Apr-12 07:59N 18°02' W 063°05'0 0.0
2017-Apr-12 07:13N 18°02' W 063°05'0 0.0
2017-Apr-12 06:50N 18°02' W 063°05'0 0.0
2017-Apr-12 06:14N 18°02' W 063°05'0 0.0
2017-Apr-12 05:34N 18°02' W 063°05'0 0.0
2017-Apr-12 05:20N 18°02' W 063°05'0 0.0
2017-Apr-12 04:50N 18°02' W 063°05'0 0.0
2017-Apr-12 03:37N 18°02' W 063°05'0 0.0
2017-Apr-12 03:22N 18°02' W 063°05'0 0.0
2017-Apr-12 01:26N 18°02' W 063°05'0 0.0
2017-Apr-12 00:56N 18°02' W 063°05'0 0.0
2017-Apr-12 00:25N 18°02' W 063°05'0 0.0
2017-Apr-11 23:56N 18°02' W 063°05'0 0.0
2017-Apr-11 23:26N 18°02' W 063°05'0 0.0
2017-Apr-11 22:59N 18°02' W 063°05'0 0.0
2017-Apr-11 20:02N 18°02' W 063°05'  
Track history (hours):
 
Tides and Currents Weather Stations Pressure Air Temp Water Temp Dewpoint Dewpoint Depression Visibility Wind Speed Wind Dir Waves Ship Positions

Iemanja

Owner: Gottlieb, James B, Port Washington, NY. More information available from US FCC via Universal Licensing System and Coast Guard Vessel Documentation Center.

Last reported at 2017-Apr-20 21:05 UTC. Time now 2017-Apr-26 00:04 UTC.
Position N 18°18' W 064°52'.

Length 28 m; draft 0.6 m.

Type: Sailing vessel. MMSI: 366215000.

Date/timePositionNaut miles runAvg speedWind from/ knotsBaromVisibWave heightAir tempDewpointWater temp
2017-Apr-20 21:05N 18°18' W 064°52'1 8.7
2017-Apr-20 20:59N 18°18' W 064°51'4 8.6
2017-Apr-20 20:29N 18°21' W 064°48'4 9.2
2017-Apr-20 20:00N 18°25' W 064°46'1 0.1
2017-Apr-20 12:33N 18°26' W 064°45'1 8.0
2017-Apr-20 12:28N 18°25' W 064°45'85 2.8
2017-Apr-19 05:46N 18°05' W 063°18'3 9.7
2017-Apr-19 05:27N 18°04' W 063°15'4 9.4
2017-Apr-19 04:59N 18°02' W 063°10'5 9.1
2017-Apr-19 04:28N 18°00' W 063°06'1 0.1
2017-Apr-18 16:50N 18°01' W 063°05'1 3.1
2017-Apr-18 16:27N 18°02' W 063°06'0 0.0
2017-Apr-18 15:57N 18°02' W 063°06'0 0.0
2017-Apr-18 15:26N 18°02' W 063°06'0 0.0
2017-Apr-18 15:00N 18°02' W 063°06'0 0.0
2017-Apr-18 14:30N 18°02' W 063°06'0 0.0
2017-Apr-18 13:30N 18°02' W 063°06'0 0.0
2017-Apr-18 13:00N 18°02' W 063°06'0 0.0
2017-Apr-18 12:30N 18°02' W 063°06'0 0.0
2017-Apr-18 12:00N 18°02' W 063°06'0 0.0
2017-Apr-18 11:30N 18°02' W 063°06'0 0.0
2017-Apr-18 10:48N 18°02' W 063°06'0 0.0
2017-Apr-18 10:30N 18°02' W 063°06'0 0.0
2017-Apr-18 09:51N 18°02' W 063°06'0 0.0
2017-Apr-18 09:30N 18°02' W 063°06'0 0.0
2017-Apr-18 09:00N 18°02' W 063°06'0 0.0
2017-Apr-18 08:21N 18°02' W 063°06'0 0.0
2017-Apr-18 07:54N 18°02' W 063°06'0 0.0
2017-Apr-18 07:24N 18°02' W 063°06'0 0.0
2017-Apr-18 06:54N 18°02' W 063°06'0 0.0
2017-Apr-18 06:24N 18°02' W 063°06'0 0.0
2017-Apr-18 05:54N 18°02' W 063°06'0 0.0
2017-Apr-18 05:24N 18°02' W 063°06'0 0.0
2017-Apr-18 04:54N 18°02' W 063°06'0 0.0
2017-Apr-18 04:27N 18°02' W 063°06'0 0.0
2017-Apr-18 03:57N 18°02' W 063°06'0 0.0
2017-Apr-18 03:27N 18°02' W 063°06'0 0.0
2017-Apr-18 03:00N 18°02' W 063°06'0 0.0
2017-Apr-18 02:30N 18°02' W 063°06'0 0.0
2017-Apr-18 02:00N 18°02' W 063°06'0 0.0
2017-Apr-18 01:30N 18°02' W 063°06'0 0.0
2017-Apr-18 01:00N 18°02' W 063°06'0 0.0
2017-Apr-18 00:30N 18°02' W 063°06'0 0.0
2017-Apr-18 00:00N 18°02' W 063°06'0 0.0
2017-Apr-17 23:30N 18°02' W 063°06'0 0.0
2017-Apr-17 23:00N 18°02' W 063°06'0 0.0
2017-Apr-17 22:30N 18°02' W 063°06'0 0.0
2017-Apr-17 21:51N 18°02' W 063°06'0 0.0
2017-Apr-17 21:30N 18°02' W 063°06'0 0.0
2017-Apr-17 21:00N 18°02' W 063°06'0 0.0
2017-Apr-17 20:21N 18°02' W 063°06'0 0.0
2017-Apr-17 19:51N 18°02' W 063°06'0 0.0
2017-Apr-17 19:24N 18°02' W 063°06'0 0.0
2017-Apr-17 18:54N 18°02' W 063°06'0 0.0
2017-Apr-17 18:24N 18°02' W 063°06'0 0.0
2017-Apr-17 17:36N 18°02' W 063°06'0 0.0
2017-Apr-17 17:24N 18°02' W 063°06'0 0.0
2017-Apr-17 16:57N 18°02' W 063°06'0 0.0
2017-Apr-17 16:27N 18°02' W 063°06'0 0.0
2017-Apr-17 15:57N 18°02' W 063°06'0 0.0
2017-Apr-17 15:27N 18°02' W 063°06'0 0.0
2017-Apr-17 14:57N 18°02' W 063°06'0 0.0
2017-Apr-17 14:00N 18°02' W 063°06'0 0.4
2017-Apr-17 13:27N 18°02' W 063°06'0 0.0
2017-Apr-17 12:54N 18°02' W 063°06'0 0.0
2017-Apr-17 12:27N 18°02' W 063°06'0 0.0
2017-Apr-17 11:57N 18°02' W 063°06'0 0.0
2017-Apr-17 11:30N 18°02' W 063°06'0 0.0
2017-Apr-17 10:57N 18°02' W 063°06'0 0.0
2017-Apr-17 10:12N 18°02' W 063°06'0 0.0
2017-Apr-17 10:00N 18°02' W 063°06'0 0.0
2017-Apr-17 09:27N 18°02' W 063°06'0 0.0
2017-Apr-17 09:00N 18°02' W 063°06'0 0.0
2017-Apr-17 08:30N 18°02' W 063°06'0 0.0
2017-Apr-17 08:00N 18°02' W 063°06'0 0.0
2017-Apr-17 07:30N 18°02' W 063°06'0 0.0
2017-Apr-17 07:00N 18°02' W 063°06'0 0.0
2017-Apr-17 06:30N 18°02' W 063°06'0 0.0
2017-Apr-17 06:00N 18°02' W 063°06'0 0.0
2017-Apr-17 05:21N 18°02' W 063°06'0 0.0
2017-Apr-17 04:51N 18°02' W 063°06'0 0.0
2017-Apr-17 04:24N 18°02' W 063°06'0 0.0
2017-Apr-17 03:54N 18°02' W 063°06'0 0.0
2017-Apr-17 03:24N 18°02' W 063°06'0 0.0
2017-Apr-17 02:54N 18°02' W 063°06'0 0.0
2017-Apr-17 02:21N 18°02' W 063°06'0 0.0
2017-Apr-17 01:57N 18°02' W 063°06'0 0.0
2017-Apr-17 01:27N 18°02' W 063°06'0 0.0
2017-Apr-17 00:57N 18°02' W 063°06'0 0.0
2017-Apr-17 00:27N 18°02' W 063°06'0 0.0
2017-Apr-16 23:57N 18°02' W 063°06'0 0.0
2017-Apr-16 23:30N 18°02' W 063°06'0 0.0
2017-Apr-16 23:00N 18°02' W 063°06'0 0.0
2017-Apr-16 22:30N 18°02' W 063°06'0 0.0
2017-Apr-16 22:00N 18°02' W 063°06'0 0.0
2017-Apr-16 21:30N 18°02' W 063°06'0 0.0
2017-Apr-16 21:00N 18°02' W 063°06'0 0.0
2017-Apr-16 20:30N 18°02' W 063°06'0 0.0
2017-Apr-16 20:00N 18°02' W 063°06'1 2.2
2017-Apr-16 19:25N 18°01' W 063°05'0 0.0
2017-Apr-14 20:18N 18°01' W 063°05'1 4.1
2017-Apr-14 19:56N 18°02' W 063°06'0 0.5
2017-Apr-14 19:30N 18°02' W 063°05'0 0.0
2017-Apr-14 14:09N 18°02' W 063°05'0 0.0
2017-Apr-14 12:21N 18°02' W 063°05'0 0.0
2017-Apr-14 10:09N 18°02' W 063°05'0 0.0
2017-Apr-14 09:57N 18°02' W 063°05'0 0.0
2017-Apr-14 09:27N 18°02' W 063°05'0 0.0
2017-Apr-14 09:00N 18°02' W 063°05'0 0.0
2017-Apr-14 08:30N 18°02' W 063°05'0 0.0
2017-Apr-14 08:00N 18°02' W 063°05'0 0.0
2017-Apr-14 07:30N 18°02' W 063°05'0 0.0
2017-Apr-14 06:57N 18°02' W 063°05'0 0.0
2017-Apr-14 06:15N 18°02' W 063°05'0 0.0
2017-Apr-14 06:00N 18°02' W 063°05'0 0.0
2017-Apr-14 05:30N 18°02' W 063°05'0 0.0
2017-Apr-14 05:00N 18°02' W 063°05'0 0.0
2017-Apr-14 04:15N 18°02' W 063°05'0 0.0
2017-Apr-14 04:00N 18°02' W 063°05'0 0.0
2017-Apr-12 21:01N 18°02' W 063°05'0 0.0
2017-Apr-12 20:31N 18°02' W 063°05'0 0.0
2017-Apr-12 19:31N 18°02' W 063°05'0 0.0
2017-Apr-12 19:04N 18°02' W 063°05'0 0.1
2017-Apr-12 18:58N 18°02' W 063°05'0 0.0
2017-Apr-12 17:31N 18°02' W 063°05'0 0.0
2017-Apr-12 13:37N 18°02' W 063°05'0 0.0
2017-Apr-12 11:55N 18°02' W 063°05'0 0.0
2017-Apr-12 11:25N 18°02' W 063°05'0 0.0
2017-Apr-12 10:55N 18°02' W 063°05'0 0.0
2017-Apr-12 10:28N 18°02' W 063°05'0 0.0
2017-Apr-12 09:55N 18°02' W 063°05'0 0.0
2017-Apr-12 09:29N 18°02' W 063°05'0 0.0
2017-Apr-12 08:58N 18°02' W 063°05'0 0.0
2017-Apr-12 08:28N 18°02' W 063°05'0 0.0
2017-Apr-12 07:59N 18°02' W 063°05'0 0.0
2017-Apr-12 07:13N 18°02' W 063°05'0 0.0
2017-Apr-12 06:50N 18°02' W 063°05'0 0.0
2017-Apr-12 06:14N 18°02' W 063°05'0 0.0
2017-Apr-12 05:34N 18°02' W 063°05'0 0.0
2017-Apr-12 05:20N 18°02' W 063°05'0 0.0
2017-Apr-12 04:50N 18°02' W 063°05'0 0.0
2017-Apr-12 03:37N 18°02' W 063°05'0 0.0
2017-Apr-12 03:22N 18°02' W 063°05'0 0.0
2017-Apr-12 01:26N 18°02' W 063°05'0 0.0
2017-Apr-12 00:56N 18°02' W 063°05'0 0.0
2017-Apr-12 00:25N 18°02' W 063°05'0 0.0
2017-Apr-11 23:56N 18°02' W 063°05'0 0.0
2017-Apr-11 23:26N 18°02' W 063°05'0 0.0
2017-Apr-11 22:59N 18°02' W 063°05'0 0.0
2017-Apr-11 20:02N 18°02' W 063°05'  

Dump ship's entire track history